createdAt,value
2023-03-11T00:01:30.106Z,17.17
2023-03-11T00:03:57.973Z,15.77
2023-03-11T00:06:27.240Z,14.60
2023-03-11T00:08:55.398Z,15.90
2023-03-11T00:11:23.577Z,12.50
2023-03-11T00:13:51.816Z,12.27
2023-03-11T00:16:20.026Z,9.73
2023-03-11T00:18:51.881Z,2.90
2023-03-11T00:21:20.488Z,3.33
2023-03-11T00:23:51.636Z,4.40
2023-03-11T00:26:20.211Z,5.27
2023-03-11T00:28:49.861Z,2.10
2023-03-11T00:31:17.901Z,1.73
2023-03-11T00:33:45.949Z,1.80
2023-03-11T00:36:21.746Z,1.53
2023-03-11T00:38:51.442Z,1.23
2023-03-11T00:41:19.228Z,2.10
2023-03-11T00:43:47.066Z,1.47
2023-03-11T00:46:14.854Z,1.17
2023-03-11T00:48:43.230Z,0.73
2023-03-11T00:51:14.322Z,1.60
2023-03-11T00:53:42.251Z,3.40
2023-03-11T00:56:12.884Z,1.40
2023-03-11T00:58:41.172Z,1.83
2023-03-11T01:01:09.951Z,0.77
2023-03-11T01:03:38.197Z,1.53
2023-03-11T01:06:06.610Z,2.50
2023-03-11T01:08:34.791Z,1.00
2023-03-11T01:11:02.674Z,0.87
2023-03-11T01:13:32.255Z,2.70
2023-03-11T01:16:00.560Z,1.00
2023-03-11T01:18:28.744Z,1.20
2023-03-11T01:20:56.631Z,0.90
2023-03-11T01:23:24.795Z,0.63
2023-03-11T01:25:52.702Z,0.90
2023-03-11T01:28:20.506Z,2.37
2023-03-11T01:30:52.675Z,1.90
2023-03-11T01:33:21.022Z,0.80
2023-03-11T01:35:49.510Z,1.17
2023-03-11T01:38:17.542Z,2.07
2023-03-11T01:40:46.468Z,1.50
2023-03-11T01:43:32.774Z,1.97
2023-03-11T01:46:12.877Z,1.33
2023-03-11T01:48:42.283Z,1.37
2023-03-11T01:51:10.465Z,1.93
2023-03-11T01:53:38.185Z,3.27
2023-03-11T01:56:06.457Z,5.40
2023-03-11T01:58:36.955Z,3.30
2023-03-11T02:01:05.219Z,2.13
2023-03-11T02:03:35.343Z,1.93
2023-03-11T02:06:05.060Z,2.10
2023-03-11T02:08:34.413Z,3.60
2023-03-11T02:11:03.321Z,3.10
2023-03-11T02:13:31.372Z,5.30
2023-03-11T02:16:00.821Z,9.30
2023-03-11T02:18:28.892Z,8.47
2023-03-11T02:21:04.926Z,11.87
2023-03-11T02:23:38.038Z,9.70
2023-03-11T02:26:08.568Z,5.57
2023-03-11T02:28:38.884Z,6.13
2023-03-11T02:31:06.797Z,7.23
2023-03-11T02:33:36.435Z,8.57
2023-03-11T02:36:04.511Z,7.43
2023-03-11T02:38:32.289Z,9.40
2023-03-11T02:41:03.083Z,10.17
2023-03-11T02:43:34.820Z,7.97
2023-03-11T02:46:05.852Z,5.83
2023-03-11T02:48:33.805Z,8.30
2023-03-11T02:51:01.598Z,8.20
2023-03-11T02:53:31.364Z,7.20
2023-03-11T02:55:59.307Z,9.27
2023-03-11T02:58:27.082Z,7.37
2023-03-11T03:00:54.985Z,6.73
2023-03-11T03:03:24.278Z,5.60
2023-03-11T03:05:52.061Z,4.70
2023-03-11T03:08:19.855Z,4.13
2023-03-11T03:10:48.350Z,4.30
2023-03-11T03:13:16.395Z,5.03
2023-03-11T03:15:44.200Z,6.33
2023-03-11T03:18:12.323Z,6.03
2023-03-11T03:20:41.453Z,6.13
2023-03-11T03:23:09.504Z,7.33
2023-03-11T03:25:37.239Z,7.10
2023-03-11T03:28:05.179Z,7.73
2023-03-11T03:30:33.211Z,6.03
2023-03-11T03:33:01.457Z,6.20
2023-03-11T03:35:29.243Z,5.97
2023-03-11T03:37:59.258Z,6.30
2023-03-11T03:40:27.506Z,5.80
2023-03-11T03:42:55.240Z,5.37
2023-03-11T03:45:23.151Z,5.70
2023-03-11T03:47:50.851Z,5.83
2023-03-11T03:50:18.754Z,6.33
2023-03-11T03:52:47.152Z,11.13
2023-03-11T03:55:16.533Z,7.63
2023-03-11T03:57:46.860Z,9.50
2023-03-11T04:00:15.902Z,5.27
2023-03-11T04:02:43.702Z,7.47
2023-03-11T04:05:11.906Z,5.67
2023-03-11T04:07:40.241Z,5.70
2023-03-11T04:10:08.818Z,5.93
2023-03-11T04:12:38.962Z,8.57
2023-03-11T04:15:08.262Z,8.70
2023-03-11T04:17:36.710Z,8.83
2023-03-11T04:20:07.856Z,7.30
2023-03-11T04:22:35.729Z,8.73
2023-03-11T04:25:03.550Z,7.23
2023-03-11T04:27:31.513Z,7.90
2023-03-11T04:30:00.607Z,7.63
2023-03-11T04:32:28.383Z,6.50
2023-03-11T04:34:56.300Z,6.13
2023-03-11T04:37:24.053Z,7.30
2023-03-11T04:39:53.448Z,3.40
2023-03-11T04:42:21.310Z,2.10
2023-03-11T04:44:49.227Z,2.80
2023-03-11T04:47:18.529Z,2.67
2023-03-11T04:49:46.350Z,3.00
2023-03-11T04:52:15.703Z,3.03
2023-03-11T04:54:43.971Z,4.53
2023-03-11T04:57:11.895Z,3.40
2023-03-11T04:59:39.684Z,4.03
2023-03-11T05:02:07.902Z,5.27
2023-03-11T05:04:37.203Z,3.47
2023-03-11T05:07:05.139Z,6.13
2023-03-11T05:09:33.120Z,4.50
2023-03-11T05:12:01.919Z,3.97
2023-03-11T05:14:30.096Z,3.83
2023-03-11T05:16:57.929Z,3.97
2023-03-11T05:19:35.565Z,6.20
2023-03-11T05:22:06.797Z,4.53
2023-03-11T05:24:34.904Z,2.77
2023-03-11T05:27:02.974Z,4.47
2023-03-11T05:29:31.419Z,6.70
2023-03-11T05:31:59.090Z,4.00
2023-03-11T05:34:26.877Z,3.70
2023-03-11T05:36:54.715Z,3.53
2023-03-11T05:39:23.853Z,1.80
2023-03-11T05:41:51.660Z,1.83
2023-03-11T05:44:19.636Z,1.40
2023-03-11T05:46:47.446Z,3.27
2023-03-11T05:49:15.300Z,2.30
2023-03-11T05:51:43.593Z,1.23
2023-03-11T05:54:15.384Z,2.23
2023-03-11T05:56:45.377Z,1.90
2023-03-11T05:59:15.841Z,1.30
2023-03-11T06:01:44.761Z,2.50
2023-03-11T06:04:15.024Z,2.43
2023-03-11T06:06:43.254Z,2.67
2023-03-11T06:09:12.936Z,1.83
2023-03-11T06:11:41.044Z,1.47
2023-03-11T06:14:12.210Z,2.00
2023-03-11T06:16:40.094Z,1.57
2023-03-11T06:19:08.019Z,1.30
2023-03-11T06:21:35.733Z,1.60
2023-03-11T06:24:03.795Z,1.47
2023-03-11T06:26:31.532Z,0.70
2023-03-11T06:28:59.357Z,0.80
2023-03-11T06:31:29.552Z,0.80
2023-03-11T06:34:00.551Z,1.03
2023-03-11T06:36:28.713Z,0.47
2023-03-11T06:38:56.736Z,0.70
2023-03-11T06:41:24.934Z,0.93
2023-03-11T06:43:52.798Z,0.90
2023-03-11T06:46:22.699Z,1.33
2023-03-11T06:48:52.975Z,0.70
2023-03-11T06:51:20.916Z,0.90
2023-03-11T06:53:52.350Z,1.13
2023-03-11T06:56:21.601Z,1.00
2023-03-11T06:58:50.098Z,1.27
2023-03-11T07:01:18.977Z,1.00
2023-03-11T07:03:47.961Z,1.37
2023-03-11T07:06:20.383Z,1.10
2023-03-11T07:08:49.094Z,0.77
2023-03-11T07:11:19.182Z,3.53
2023-03-11T07:13:47.564Z,2.57
2023-03-11T07:16:18.139Z,1.03
2023-03-11T07:18:46.645Z,0.80
2023-03-11T07:21:15.407Z,1.37
2023-03-11T07:23:45.200Z,0.60
2023-03-11T07:26:14.308Z,1.73
2023-03-11T07:28:42.362Z,1.03
2023-03-11T07:31:10.539Z,2.37
2023-03-11T07:33:39.857Z,1.17
2023-03-11T07:36:08.214Z,2.03
2023-03-11T07:38:36.358Z,0.73
2023-03-11T07:41:06.117Z,3.23
2023-03-11T07:43:33.876Z,1.10
2023-03-11T07:46:06.240Z,1.53
2023-03-11T07:48:34.745Z,1.20
2023-03-11T07:51:03.809Z,1.70
2023-03-11T07:53:31.616Z,3.20
2023-03-11T07:55:59.943Z,1.27
2023-03-11T07:58:29.817Z,0.87
2023-03-11T08:00:57.704Z,2.00
2023-03-11T08:03:26.155Z,1.60
2023-03-11T08:05:54.260Z,8.30
2023-03-11T08:08:22.758Z,1.00
2023-03-11T08:10:52.075Z,1.63
2023-03-11T08:13:19.825Z,0.83
2023-03-11T08:15:49.387Z,1.67
2023-03-11T08:18:17.944Z,0.90
2023-03-11T08:20:45.979Z,2.50
2023-03-11T08:23:14.101Z,1.47
2023-03-11T08:25:41.823Z,1.37
2023-03-11T08:28:11.358Z,2.13
2023-03-11T08:30:41.046Z,3.90
2023-03-11T08:33:12.710Z,1.27
2023-03-11T08:35:40.891Z,1.80
2023-03-11T08:38:08.896Z,3.17
2023-03-11T08:40:36.831Z,1.13
2023-03-11T08:43:04.940Z,1.03
2023-03-11T08:45:33.453Z,2.93
2023-03-11T08:48:01.474Z,1.97
2023-03-11T08:50:31.508Z,2.97
2023-03-11T08:53:03.325Z,2.93
2023-03-11T08:55:31.133Z,2.20
2023-03-11T08:57:58.771Z,1.63
2023-03-11T09:00:26.702Z,3.33
2023-03-11T09:02:54.789Z,1.13
2023-03-11T09:05:23.631Z,0.80
2023-03-11T09:07:52.945Z,1.70
2023-03-11T09:10:20.821Z,2.30
2023-03-11T09:12:48.493Z,1.23
2023-03-11T09:15:16.506Z,1.20
2023-03-11T09:17:44.349Z,1.90
2023-03-11T09:20:13.812Z,2.07
2023-03-11T09:22:41.625Z,1.20
2023-03-11T09:25:11.208Z,1.07
2023-03-11T09:27:39.039Z,1.70
2023-03-11T09:30:07.440Z,2.20
2023-03-11T09:32:35.531Z,2.57
2023-03-11T09:35:03.382Z,3.30
2023-03-11T09:37:31.067Z,1.60
2023-03-11T09:39:58.876Z,1.00
2023-03-11T09:42:34.245Z,3.07
2023-03-11T09:45:04.734Z,3.93
2023-03-11T09:47:37.003Z,3.00
2023-03-11T09:50:13.078Z,2.70
2023-03-11T09:52:44.016Z,7.40
2023-03-11T09:55:22.188Z,1.17
2023-03-11T09:57:53.856Z,1.00
2023-03-11T10:00:22.751Z,1.60
2023-03-11T10:02:51.339Z,1.03
2023-03-11T10:05:22.971Z,1.37
2023-03-11T10:07:54.837Z,1.33
2023-03-11T10:10:23.387Z,0.90
2023-03-11T10:12:57.361Z,6.57
2023-03-11T10:15:32.190Z,5.20
2023-03-11T10:18:12.042Z,0.77
2023-03-11T10:20:43.837Z,1.23
2023-03-11T10:23:16.584Z,2.67
2023-03-11T10:25:49.534Z,1.70
2023-03-11T10:28:19.946Z,1.07
2023-03-11T10:30:49.345Z,3.50
2023-03-11T10:33:21.180Z,1.00
2023-03-11T10:35:51.604Z,1.97
2023-03-11T10:38:21.080Z,2.13
2023-03-11T10:40:51.212Z,3.33
2023-03-11T10:43:22.308Z,1.67
2023-03-11T10:45:52.007Z,2.50
2023-03-11T10:48:20.954Z,1.83
2023-03-11T10:50:52.604Z,0.90
2023-03-11T10:53:21.051Z,1.67
2023-03-11T10:55:49.482Z,3.13
2023-03-11T10:58:18.609Z,4.97
2023-03-11T11:00:47.783Z,2.10
2023-03-11T11:03:23.199Z,0.90
2023-03-11T11:05:59.188Z,2.97
2023-03-11T11:08:27.299Z,3.27
2023-03-11T11:10:56.451Z,1.63
2023-03-11T11:13:25.492Z,1.47
2023-03-11T11:15:56.516Z,1.37
2023-03-11T11:18:26.413Z,1.93
2023-03-11T11:20:56.347Z,1.80
2023-03-11T11:23:28.227Z,4.10
2023-03-11T11:25:58.534Z,1.53
2023-03-11T11:28:26.537Z,1.90
2023-03-11T11:30:57.171Z,1.43
2023-03-11T11:33:26.382Z,1.03
2023-03-11T11:35:56.364Z,1.83
2023-03-11T11:38:25.380Z,1.20
2023-03-11T11:40:54.145Z,3.20
2023-03-11T11:43:26.668Z,2.20
2023-03-11T11:45:58.454Z,2.00
2023-03-11T11:48:30.700Z,3.30
2023-03-11T11:50:59.744Z,2.03
2023-03-11T11:53:33.029Z,3.20
2023-03-11T11:56:01.205Z,1.47
2023-03-11T11:58:29.668Z,0.90
2023-03-11T12:01:04.828Z,1.87
2023-03-11T12:03:44.058Z,1.33
2023-03-11T12:06:16.054Z,3.93
2023-03-11T12:08:49.758Z,1.23
2023-03-11T12:11:21.542Z,3.47
2023-03-11T12:13:51.944Z,0.83
2023-03-11T12:16:25.376Z,2.37
2023-03-11T12:18:57.304Z,3.20
2023-03-11T12:21:34.309Z,3.27
2023-03-11T12:24:07.159Z,3.40
2023-03-11T12:26:37.862Z,5.23
2023-03-11T12:29:11.003Z,3.20
2023-03-11T12:31:40.764Z,1.93
2023-03-11T12:34:14.304Z,4.50
2023-03-11T12:36:43.960Z,3.27
2023-03-11T12:39:22.118Z,2.00
2023-03-11T12:41:50.084Z,1.33
2023-03-11T12:44:28.947Z,2.97
2023-03-11T12:47:11.477Z,3.00
2023-03-11T12:49:45.115Z,3.33
2023-03-11T12:52:21.163Z,2.43
2023-03-11T12:54:49.447Z,1.77
2023-03-11T12:57:31.305Z,1.07
2023-03-11T13:00:10.103Z,2.33
2023-03-11T13:02:49.524Z,2.03
2023-03-11T13:05:23.355Z,2.33
2023-03-11T13:07:52.596Z,1.20
2023-03-11T13:10:35.316Z,1.20
2023-03-11T13:13:03.464Z,1.40
2023-03-11T13:15:43.242Z,1.73
2023-03-11T13:18:16.913Z,2.93
2023-03-11T13:20:51.703Z,1.27
2023-03-11T13:23:27.689Z,2.73
2023-03-11T13:26:10.329Z,2.00
2023-03-11T13:28:46.670Z,2.70
2023-03-11T13:31:38.610Z,1.07
2023-03-11T13:34:13.746Z,1.80
2023-03-11T13:36:48.111Z,1.53
2023-03-11T13:39:26.007Z,1.93
2023-03-11T13:41:55.700Z,1.20
2023-03-11T13:44:27.415Z,2.77
2023-03-11T13:46:58.282Z,1.20
2023-03-11T13:49:29.930Z,1.47
2023-03-11T13:51:59.848Z,3.07
2023-03-11T13:54:45.302Z,1.10
2023-03-11T13:57:21.192Z,2.20
2023-03-11T13:59:52.565Z,1.23
2023-03-11T14:02:21.695Z,2.43
2023-03-11T14:04:51.031Z,1.00
2023-03-11T14:07:25.374Z,2.00
2023-03-11T14:09:53.592Z,4.50
2023-03-11T14:12:21.552Z,4.57
2023-03-11T14:14:52.286Z,13.87
2023-03-11T14:17:21.467Z,2.90
2023-03-11T14:20:07.062Z,2.03
2023-03-11T14:22:36.568Z,1.93
2023-03-11T14:25:11.013Z,2.73
2023-03-11T14:27:39.513Z,2.47
2023-03-11T14:30:09.594Z,4.50
2023-03-11T14:32:37.813Z,3.73
2023-03-11T14:35:19.754Z,5.43
2023-03-11T14:37:49.336Z,4.27
2023-03-11T14:40:25.529Z,1.30
2023-03-11T14:42:55.519Z,2.50
2023-03-11T14:45:24.670Z,2.37
2023-03-11T14:47:56.045Z,2.13
2023-03-11T14:50:24.598Z,2.23
2023-03-11T14:52:55.591Z,1.60
2023-03-11T14:55:25.183Z,1.23
2023-03-11T14:57:54.871Z,1.87
2023-03-11T15:00:24.648Z,1.90
2023-03-11T15:02:57.435Z,2.27
2023-03-11T15:05:29.278Z,2.83
2023-03-11T15:08:01.755Z,6.60
2023-03-11T15:10:29.626Z,4.73
2023-03-11T15:13:05.774Z,7.97
2023-03-11T15:15:34.196Z,3.23
2023-03-11T15:18:02.808Z,1.73
2023-03-11T15:20:32.778Z,1.70
2023-03-11T15:23:03.092Z,4.73
2023-03-11T15:25:33.352Z,1.33
2023-03-11T15:28:01.157Z,3.57
2023-03-11T15:30:30.754Z,1.30
2023-03-11T15:32:59.174Z,4.77
2023-03-11T15:35:27.279Z,2.60
2023-03-11T15:38:11.087Z,5.27
2023-03-11T15:40:45.612Z,3.17
2023-03-11T15:43:24.817Z,5.53
2023-03-11T15:45:54.591Z,3.07
2023-03-11T15:48:23.090Z,5.37
2023-03-11T15:50:53.745Z,3.70
2023-03-11T15:53:22.381Z,4.20
2023-03-11T15:55:52.042Z,4.97
2023-03-11T15:58:20.813Z,4.60
2023-03-11T16:00:49.959Z,5.07
2023-03-11T16:03:18.554Z,5.90
2023-03-11T16:05:46.668Z,5.80
2023-03-11T16:08:15.063Z,4.47
2023-03-11T16:10:45.117Z,5.53
2023-03-11T16:13:15.540Z,4.80
2023-03-11T16:15:47.279Z,4.40
2023-03-11T16:18:16.177Z,3.50
2023-03-11T16:20:44.559Z,4.90
2023-03-11T16:23:14.694Z,5.03
2023-03-11T16:25:42.437Z,4.73
2023-03-11T16:28:12.742Z,4.40
2023-03-11T16:30:42.448Z,3.90
2023-03-11T16:33:10.295Z,5.70
2023-03-11T16:35:38.227Z,3.17
2023-03-11T16:38:06.476Z,3.93
2023-03-11T16:40:34.253Z,3.60
2023-03-11T16:43:02.941Z,4.07
2023-03-11T16:45:31.328Z,3.67
2023-03-11T16:48:00.541Z,3.47
2023-03-11T16:50:28.475Z,2.30
2023-03-11T16:52:57.043Z,2.60
2023-03-11T16:55:25.955Z,3.37
2023-03-11T16:57:54.873Z,3.80
2023-03-11T17:00:22.973Z,2.40
2023-03-11T17:02:50.637Z,2.27
2023-03-11T17:05:20.030Z,1.73
2023-03-11T17:07:49.547Z,2.27
2023-03-11T17:10:17.713Z,4.57
2023-03-11T17:12:45.520Z,4.80
2023-03-11T17:15:13.763Z,3.13
2023-03-11T17:17:41.520Z,3.00
2023-03-11T17:20:10.245Z,2.67
2023-03-11T17:22:39.726Z,3.40
2023-03-11T17:25:08.122Z,2.47
2023-03-11T17:27:36.330Z,4.30
2023-03-11T17:30:06.756Z,3.03
2023-03-11T17:32:34.674Z,3.57
2023-03-11T17:35:02.464Z,3.17
2023-03-11T17:37:30.628Z,2.00
2023-03-11T17:40:00.182Z,2.00
2023-03-11T17:42:28.080Z,2.23
2023-03-11T17:44:56.513Z,2.93
2023-03-11T17:47:26.268Z,2.30
2023-03-11T17:49:54.489Z,2.97
2023-03-11T17:52:22.324Z,4.77
2023-03-11T17:54:50.156Z,2.70
2023-03-11T17:57:19.569Z,3.13
2023-03-11T17:59:50.828Z,3.57
2023-03-11T18:02:19.172Z,6.73
2023-03-11T18:04:52.573Z,3.10
2023-03-11T18:07:23.698Z,3.87
2023-03-11T18:09:52.259Z,3.53
2023-03-11T18:12:21.996Z,2.17
2023-03-11T18:14:50.175Z,2.23
2023-03-11T18:17:19.151Z,2.30
2023-03-11T18:19:47.024Z,2.47
2023-03-11T18:22:15.644Z,3.30
2023-03-11T18:24:43.767Z,1.47
2023-03-11T18:27:11.517Z,2.43
2023-03-11T18:29:40.932Z,2.10
2023-03-11T18:32:08.851Z,2.40
2023-03-11T18:34:38.025Z,4.67
2023-03-11T18:37:05.740Z,3.20
2023-03-11T18:39:33.526Z,2.53
2023-03-11T18:42:03.387Z,2.47
2023-03-11T18:44:31.123Z,2.00
2023-03-11T18:47:00.504Z,2.67
2023-03-11T18:49:29.150Z,2.10
2023-03-11T18:51:56.929Z,3.40
2023-03-11T18:54:24.628Z,1.87
2023-03-11T18:56:53.678Z,3.07
2023-03-11T18:59:22.668Z,3.20
2023-03-11T19:01:51.291Z,4.80
2023-03-11T19:04:20.419Z,3.50
2023-03-11T19:06:50.358Z,1.83
2023-03-11T19:09:19.177Z,1.90
2023-03-11T19:11:47.550Z,1.87
2023-03-11T19:14:15.384Z,3.03
2023-03-11T19:16:43.765Z,1.43
2023-03-11T19:19:12.211Z,2.23
2023-03-11T19:21:43.769Z,1.33
2023-03-11T19:24:13.007Z,1.00
2023-03-11T19:26:45.167Z,1.63
2023-03-11T19:29:13.688Z,1.07
2023-03-11T19:31:43.417Z,0.93
2023-03-11T19:34:12.066Z,1.17
2023-03-11T19:36:41.481Z,2.07
2023-03-11T19:39:09.324Z,3.63
2023-03-11T19:41:38.369Z,1.00
2023-03-11T19:44:06.231Z,1.93
2023-03-11T19:46:34.960Z,0.90
2023-03-11T19:49:03.410Z,1.50
2023-03-11T19:51:46.434Z,1.60
2023-03-11T19:54:18.293Z,2.87
2023-03-11T19:56:46.541Z,1.27
2023-03-11T19:59:14.493Z,0.73
2023-03-11T20:01:43.219Z,0.90
2023-03-11T20:04:11.639Z,1.53
2023-03-11T20:06:39.906Z,1.20
2023-03-11T20:09:08.051Z,1.30
2023-03-11T20:11:40.596Z,1.10
2023-03-11T20:14:08.652Z,1.63
2023-03-11T20:16:37.109Z,1.83
2023-03-11T20:19:05.067Z,2.13
2023-03-11T20:21:33.368Z,1.37
2023-03-11T20:24:01.211Z,0.80
2023-03-11T20:26:29.217Z,1.43
2023-03-11T20:28:58.735Z,0.70
2023-03-11T20:31:27.027Z,1.70
2023-03-11T20:33:55.320Z,2.93
2023-03-11T20:36:24.078Z,1.67
2023-03-11T20:38:54.816Z,2.57
2023-03-11T20:41:23.735Z,1.53
2023-03-11T20:43:53.184Z,0.90
2023-03-11T20:46:22.430Z,1.30
2023-03-11T20:48:50.679Z,1.00
2023-03-11T20:51:20.787Z,1.20
2023-03-11T20:53:49.303Z,2.20
2023-03-11T20:56:18.617Z,1.13
2023-03-11T20:58:49.210Z,1.73
2023-03-11T21:01:18.665Z,2.83
2023-03-11T21:03:50.890Z,0.70
2023-03-11T21:06:19.644Z,1.17
2023-03-11T21:08:47.954Z,1.40
2023-03-11T21:11:16.354Z,1.50
2023-03-11T21:13:44.528Z,1.23
2023-03-11T21:16:12.781Z,1.97
2023-03-11T21:18:40.848Z,3.33
2023-03-11T21:21:11.832Z,1.23
2023-03-11T21:23:41.070Z,2.43
2023-03-11T21:26:09.386Z,2.20
2023-03-11T21:28:38.923Z,3.77
2023-03-11T21:31:08.505Z,2.17
2023-03-11T21:33:36.517Z,1.50
2023-03-11T21:36:05.178Z,1.73
2023-03-11T21:38:34.687Z,2.83
2023-03-11T21:41:06.522Z,2.20
2023-03-11T21:43:34.629Z,5.63
2023-03-11T21:46:02.700Z,2.77
2023-03-11T21:48:31.024Z,1.53
2023-03-11T21:50:58.736Z,1.50
2023-03-11T21:53:27.551Z,2.23
2023-03-11T21:55:59.820Z,1.30
2023-03-11T21:58:28.734Z,1.87
2023-03-11T22:00:57.093Z,1.23
2023-03-11T22:03:25.155Z,1.63
2023-03-11T22:05:56.758Z,1.70
2023-03-11T22:08:24.945Z,3.00
2023-03-11T22:10:53.227Z,1.93
2023-03-11T22:13:23.122Z,2.90
2023-03-11T22:15:51.878Z,2.90
2023-03-11T22:18:19.958Z,4.07
2023-03-11T22:20:47.840Z,1.17
2023-03-11T22:23:15.589Z,1.40
2023-03-11T22:25:43.409Z,2.67
2023-03-11T22:28:13.096Z,4.80
2023-03-11T22:30:42.307Z,3.73
2023-03-11T22:33:10.154Z,3.00
2023-03-11T22:35:38.296Z,3.77
2023-03-11T22:38:06.117Z,2.00
2023-03-11T22:40:36.440Z,5.93
2023-03-11T22:43:04.173Z,2.50
2023-03-11T22:45:32.427Z,6.07
2023-03-11T22:48:01.877Z,2.83
2023-03-11T22:50:29.662Z,3.50
2023-03-11T22:52:57.793Z,10.10
2023-03-11T22:55:25.594Z,2.33
2023-03-11T22:57:55.883Z,3.70
2023-03-11T23:00:24.171Z,4.37
2023-03-11T23:02:54.178Z,2.37
2023-03-11T23:05:23.736Z,4.07
2023-03-11T23:07:51.866Z,4.73
2023-03-11T23:10:21.218Z,5.03
2023-03-11T23:12:49.267Z,4.73
2023-03-11T23:15:18.357Z,2.57
2023-03-11T23:17:46.360Z,6.43
2023-03-11T23:20:15.364Z,2.07
2023-03-11T23:22:44.865Z,2.23
2023-03-11T23:25:13.571Z,4.80
2023-03-11T23:27:41.913Z,4.43
2023-03-11T23:30:10.815Z,3.70
2023-03-11T23:32:38.626Z,8.03
2023-03-11T23:35:07.644Z,5.10
2023-03-11T23:37:35.716Z,8.50
2023-03-11T23:40:07.943Z,4.37
2023-03-11T23:42:36.143Z,2.90
2023-03-11T23:45:04.035Z,3.20
2023-03-11T23:47:31.990Z,3.67
2023-03-11T23:49:59.941Z,4.67
2023-03-11T23:52:28.746Z,3.23
2023-03-11T23:54:56.788Z,4.17
2023-03-11T23:57:25.960Z,3.90
2023-03-11T23:59:53.822Z,2.87
